Time,TemperatureF,DewpointF,PressureIn,WindDirection,WindDirectionDegrees,WindSpeedMPH,WindSpeedGustMPH,Humidity,HourlyPrecipIn,Conditions,Clouds,dailyrainin,SoftwareType,DateUTC
2013-02-08 00:00:00,44.7,42.8,29.89,NNE,22,3.0,5.0,93,0.00,,---,0.00,VWS V14.00,2013-02-08 05:00:00,
2013-02-08 00:05:00,44.7,42.8,29.89,NNE,15,0.0,8.0,93,0.00,,---,0.00,VWS V14.00,2013-02-08 05:05:00,
2013-02-08 00:10:00,44.7,42.8,29.89,ENE,61,4.0,8.0,93,0.00,,---,0.00,VWS V14.00,2013-02-08 05:10:00,
2013-02-08 00:15:00,44.6,42.7,29.89,NNE,17,3.0,8.0,93,0.00,,---,0.00,VWS V14.00,2013-02-08 05:15:00,
2013-02-08 00:20:00,44.6,42.7,29.89,NE,44,4.0,8.0,93,0.00,,---,0.00,VWS V14.00,2013-02-08 05:20:00,
2013-02-08 00:25:00,44.5,42.6,29.90,NE,36,2.0,8.0,93,0.00,,---,0.00,VWS V14.00,2013-02-08 05:25:00,
2013-02-08 00:30:00,44.3,42.4,29.89,NE,40,4.0,7.0,93,0.00,,---,0.00,VWS V14.00,2013-02-08 05:30:00,
2013-02-08 00:35:00,44.2,42.3,29.89,NNE,22,1.0,10.0,93,0.00,,---,0.00,VWS V14.00,2013-02-08 05:35:00,
2013-02-08 00:40:00,44.1,42.2,29.89,NNE,22,4.0,10.0,93,0.00,,---,0.00,VWS V14.00,2013-02-08 05:40:00,
2013-02-08 00:45:00,44.0,42.1,29.88,NE,46,3.0,10.0,93,0.00,,---,0.00,VWS V14.00,2013-02-08 05:45:00,
2013-02-08 00:50:00,43.9,42.0,29.88,NE,37,2.0,10.0,93,0.00,,---,0.00,VWS V14.00,2013-02-08 05:50:00,
2013-02-08 00:55:00,43.8,41.9,29.88,NNE,15,3.0,10.0,93,0.00,,---,0.00,VWS V14.00,2013-02-08 05:55:00,
2013-02-08 01:00:00,43.7,41.8,29.88,NE,36,3.0,5.0,93,0.00,,---,0.00,VWS V14.00,2013-02-08 06:00:00,
2013-02-08 01:05:00,43.7,41.8,29.87,NNE,22,3.0,9.0,93,0.00,,---,0.00,VWS V14.00,2013-02-08 06:05:00,
2013-02-08 01:10:00,43.6,41.7,29.87,ENE,65,0.0,9.0,93,0.00,,---,0.00,VWS V14.00,2013-02-08 06:10:00,
2013-02-08 01:15:00,43.6,41.7,29.87,NE,44,6.0,9.0,93,0.00,,---,0.00,VWS V14.00,2013-02-08 06:15:00,
2013-02-08 01:20:00,43.6,41.7,29.87,NE,43,4.0,9.0,93,0.00,,---,0.00,VWS V14.00,2013-02-08 06:20:00,
2013-02-08 01:25:00,43.6,41.7,29.87,NNE,15,1.0,9.0,93,0.00,,---,0.00,VWS V14.00,2013-02-08 06:25:00,
2013-02-08 01:31:00,43.6,41.4,29.87,ENE,59,3.0,6.0,92,0.00,,---,0.00,VWS V14.00,2013-02-08 06:31:00,
2013-02-08 01:36:00,43.6,41.4,29.87,ENE,69,4.0,7.0,92,0.00,,---,0.00,VWS V14.00,2013-02-08 06:36:00,
2013-02-08 01:41:00,43.7,41.5,29.88,North,360,3.0,8.0,92,0.00,,---,0.00,VWS V14.00,2013-02-08 06:41:00,
2013-02-08 01:46:00,43.8,41.6,29.89,NE,34,2.0,8.0,92,0.00,,---,0.00,VWS V14.00,2013-02-08 06:46:00,
2013-02-08 01:51:00,43.8,41.6,29.89,East,83,0.0,11.0,92,0.00,,---,0.00,VWS V14.00,2013-02-08 06:51:00,
2013-02-08 01:56:00,43.9,41.7,29.89,ENE,61,2.0,11.0,92,0.00,,---,0.00,VWS V14.00,2013-02-08 06:56:00,
2013-02-08 02:01:00,43.9,41.7,29.90,North,5,1.0,8.0,92,0.00,,---,0.00,VWS V14.00,2013-02-08 07:01:00,
2013-02-08 02:06:00,44.0,41.8,29.90,North,5,0.0,8.0,92,0.00,,---,0.00,VWS V14.00,2013-02-08 07:06:00,
2013-02-08 02:11:00,44.0,41.8,29.90,NNE,24,0.0,8.0,92,0.00,,---,0.00,VWS V14.00,2013-02-08 07:11:00,
2013-02-08 02:16:00,44.0,41.8,29.90,NNE,26,0.0,8.0,92,0.00,,---,0.00,VWS V14.00,2013-02-08 07:16:00,
2013-02-08 02:21:00,44.0,41.8,29.90,NNE,25,0.0,8.0,92,0.00,,---,0.00,VWS V14.00,2013-02-08 07:21:00,
2013-02-08 02:26:00,44.0,41.8,29.90,NNE,23,2.0,8.0,92,0.00,,---,0.00,VWS V14.00,2013-02-08 07:26:00,
2013-02-08 02:31:00,44.0,41.8,29.90,North,5,0.0,4.0,92,0.00,,---,0.00,VWS V14.00,2013-02-08 07:31:00,
2013-02-08 02:36:00,44.0,42.1,29.90,North,10,0.0,4.0,93,0.00,,---,0.00,VWS V14.00,2013-02-08 07:36:00,
2013-02-08 02:41:00,43.9,42.0,29.90,NNE,14,0.0,4.0,93,0.00,,---,0.00,VWS V14.00,2013-02-08 07:41:00,
2013-02-08 02:46:00,43.9,42.0,29.89,NNE,14,0.0,4.0,93,0.00,,---,0.00,VWS V14.00,2013-02-08 07:46:00,
2013-02-08 02:51:00,44.0,42.1,29.89,NNE,14,0.0,4.0,93,0.00,,---,0.00,VWS V14.00,2013-02-08 07:51:00,
2013-02-08 02:56:00,44.0,42.1,29.89,NNE,14,0.0,4.0,93,0.00,,---,0.00,VWS V14.00,2013-02-08 07:56:00,
2013-02-08 03:01:00,44.0,42.1,29.89,NNE,14,1.0,3.0,93,0.00,,---,0.00,VWS V14.00,2013-02-08 08:01:00,
2013-02-08 03:06:00,44.0,42.1,29.89,NNE,14,0.0,3.0,93,0.00,,---,0.00,VWS V14.00,2013-02-08 08:06:00,
2013-02-08 03:11:00,44.0,42.1,29.89,NNE,19,1.0,5.0,93,0.00,,---,0.00,VWS V14.00,2013-02-08 08:11:00,
2013-02-08 03:16:00,44.0,42.1,29.89,NNE,21,2.0,5.0,93,0.00,,---,0.00,VWS V14.00,2013-02-08 08:16:00,
2013-02-08 03:21:00,44.0,42.1,29.89,NNE,15,1.0,6.0,93,0.00,,---,0.00,VWS V14.00,2013-02-08 08:21:00,
2013-02-08 03:26:00,44.0,42.1,29.90,NNE,25,3.0,6.0,93,0.00,,---,0.00,VWS V14.00,2013-02-08 08:26:00,
2013-02-08 03:31:00,44.1,42.2,29.89,North,355,0.0,4.0,93,0.00,,---,0.00,VWS V14.00,2013-02-08 08:31:00,
2013-02-08 03:36:00,44.0,42.1,29.89,North,5,0.0,5.0,93,0.00,,---,0.00,VWS V14.00,2013-02-08 08:36:00,
2013-02-08 03:41:00,44.1,42.2,29.89,North,5,1.0,5.0,93,0.00,,---,0.00,VWS V14.00,2013-02-08 08:41:00,
2013-02-08 03:46:00,44.1,42.2,29.89,North,5,0.0,5.0,93,0.00,,---,0.00,VWS V14.00,2013-02-08 08:46:00,
2013-02-08 03:51:00,44.1,42.2,29.89,NNE,24,3.0,6.0,93,0.00,,---,0.00,VWS V14.00,2013-02-08 08:51:00,
2013-02-08 03:56:00,44.1,42.2,29.89,NNE,24,0.0,6.0,93,0.00,,---,0.00,VWS V14.00,2013-02-08 08:56:00,
2013-02-08 04:01:00,44.1,42.2,29.89,NNE,24,0.0,0.0,93,0.00,,---,0.00,VWS V14.00,2013-02-08 09:01:00,
2013-02-08 04:06:00,44.1,42.2,29.89,NNE,24,0.0,2.0,93,0.00,,---,0.00,VWS V14.00,2013-02-08 09:06:00,
2013-02-08 04:11:00,44.1,42.2,29.89,NNE,24,0.0,2.0,93,0.00,,---,0.00,VWS V14.00,2013-02-08 09:11:00,
2013-02-08 04:16:00,44.1,42.2,29.90,NNE,22,1.0,3.0,93,0.00,,---,0.00,VWS V14.00,2013-02-08 09:16:00,
2013-02-08 04:21:00,44.1,42.2,29.90,NNE,22,0.0,3.0,93,0.00,,---,0.00,VWS V14.00,2013-02-08 09:21:00,
2013-02-08 04:25:00,44.1,42.2,29.90,NNE,22,0.0,3.0,93,0.00,,---,0.00,VWS V14.00,2013-02-08 09:25:00,
2013-02-08 04:30:00,44.1,42.2,29.90,NNE,15,0.0,3.0,93,0.00,,---,0.00,VWS V14.00,2013-02-08 09:30:00,
2013-02-08 04:35:00,44.1,42.2,29.90,NNE,14,0.0,3.0,93,0.00,,---,0.00,VWS V14.00,2013-02-08 09:35:00,
2013-02-08 04:40:00,44.1,42.2,29.90,NNE,14,0.0,3.0,93,0.00,,---,0.00,VWS V14.00,2013-02-08 09:40:00,
2013-02-08 04:45:00,44.1,42.2,29.90,NNE,14,0.0,3.0,93,0.00,,---,0.00,VWS V14.00,2013-02-08 09:45:00,
2013-02-08 04:50:00,44.1,42.2,29.91,NNE,14,0.0,3.0,93,0.00,,---,0.00,VWS V14.00,2013-02-08 09:50:00,
2013-02-08 04:55:00,44.1,42.2,29.91,North,5,1.0,3.0,93,0.00,,---,0.00,VWS V14.00,2013-02-08 09:55:00,
2013-02-08 05:00:00,44.1,42.2,29.91,North,5,0.0,3.0,93,0.00,,---,0.00,VWS V14.00,2013-02-08 10:00:00,
2013-02-08 05:05:00,44.0,42.1,29.90,NNW,339,1.0,5.0,93,0.00,,---,0.00,VWS V14.00,2013-02-08 10:05:00,
2013-02-08 05:10:00,44.0,42.1,29.90,NNW,340,0.0,5.0,93,0.00,,---,0.00,VWS V14.00,2013-02-08 10:10:00,
2013-02-08 05:15:00,44.0,42.1,29.90,NNW,329,0.0,5.0,93,0.00,,---,0.00,VWS V14.00,2013-02-08 10:15:00,
2013-02-08 05:20:00,44.1,42.2,29.91,NNW,345,0.0,5.0,93,0.00,,---,0.00,VWS V14.00,2013-02-08 10:20:00,
2013-02-08 05:25:00,44.0,42.1,29.90,North,350,0.0,5.0,93,0.00,,---,0.00,VWS V14.00,2013-02-08 10:25:00,
2013-02-08 05:30:00,44.0,42.1,29.91,North,350,1.0,4.0,93,0.00,,---,0.00,VWS V14.00,2013-02-08 10:30:00,
2013-02-08 05:35:00,44.0,42.1,29.91,North,351,0.0,4.0,93,0.00,,---,0.00,VWS V14.00,2013-02-08 10:35:00,
2013-02-08 05:40:00,44.0,42.1,29.91,North,351,0.0,5.0,93,0.00,,---,0.00,VWS V14.00,2013-02-08 10:40:00,
2013-02-08 05:45:00,44.0,42.1,29.91,North,351,0.0,5.0,93,0.00,,---,0.00,VWS V14.00,2013-02-08 10:45:00,
2013-02-08 05:50:00,43.9,42.0,29.91,North,351,0.0,5.0,93,0.00,,---,0.00,VWS V14.00,2013-02-08 10:50:00,
2013-02-08 05:56:00,44.0,42.1,29.91,NNW,334,2.0,5.0,93,0.00,,---,0.00,VWS V14.00,2013-02-08 10:56:00,
2013-02-08 06:01:00,44.0,42.1,29.91,NNW,333,0.0,2.0,93,0.00,,---,0.00,VWS V14.00,2013-02-08 11:01:00,
2013-02-08 06:06:00,44.0,42.1,29.92,NNW,338,0.0,5.0,93,0.00,,---,0.00,VWS V14.00,2013-02-08 11:06:00,
2013-02-08 06:11:00,44.0,42.1,29.92,NNW,338,0.0,5.0,93,0.00,,---,0.00,VWS V14.00,2013-02-08 11:11:00,
2013-02-08 06:16:00,44.0,42.1,29.93,NNW,338,0.0,5.0,93,0.00,,---,0.00,VWS V14.00,2013-02-08 11:16:00,
2013-02-08 06:21:00,44.0,42.1,29.94,NNW,338,0.0,5.0,93,0.00,,---,0.00,VWS V14.00,2013-02-08 11:21:00,
2013-02-08 06:26:00,44.0,42.1,29.94,NNW,342,4.0,5.0,93,0.00,,---,0.00,VWS V14.00,2013-02-08 11:26:00,
2013-02-08 06:31:00,44.0,42.1,29.94,NNW,344,0.0,5.0,93,0.00,,---,0.00,VWS V14.00,2013-02-08 11:31:00,
2013-02-08 06:36:00,43.9,42.0,29.94,North,355,1.0,5.0,93,0.00,,---,0.00,VWS V14.00,2013-02-08 11:36:00,
2013-02-08 06:41:00,43.9,42.0,29.95,North,355,0.0,5.0,93,0.00,,---,0.00,VWS V14.00,2013-02-08 11:41:00,
2013-02-08 06:46:00,43.9,42.0,29.95,North,351,0.0,5.0,93,0.00,,---,0.00,VWS V14.00,2013-02-08 11:46:00,
2013-02-08 06:51:00,43.9,42.0,29.94,North,351,0.0,5.0,93,0.00,,---,0.00,VWS V14.00,2013-02-08 11:51:00,
2013-02-08 06:55:00,43.8,41.9,29.94,North,351,1.0,5.0,93,0.00,,---,0.00,VWS V14.00,2013-02-08 11:55:00,
2013-02-08 07:01:00,43.8,41.9,29.93,North,351,0.0,0.0,93,0.00,,---,0.00,VWS V14.00,2013-02-08 12:01:00,
2013-02-08 07:06:00,43.8,41.9,29.93,North,351,0.0,0.0,93,0.00,,---,0.00,VWS V14.00,2013-02-08 12:06:00,
2013-02-08 07:11:00,43.8,41.9,29.93,North,351,1.0,1.0,93,0.00,,---,0.00,VWS V14.00,2013-02-08 12:11:00,
2013-02-08 07:16:00,43.7,41.8,29.93,North,351,0.0,2.0,93,0.00,,---,0.00,VWS V14.00,2013-02-08 12:16:00,
2013-02-08 07:20:00,43.6,41.7,29.93,North,351,0.0,2.0,93,0.00,,---,0.00,VWS V14.00,2013-02-08 12:20:00,
2013-02-08 07:25:00,43.5,41.6,29.93,North,351,0.0,2.0,93,0.00,,---,0.00,VWS V14.00,2013-02-08 12:25:00,
2013-02-08 07:30:00,43.4,41.5,29.93,North,351,0.0,1.0,93,0.00,,---,0.00,VWS V14.00,2013-02-08 12:30:00,
2013-02-08 07:35:00,43.3,41.4,29.94,North,351,0.0,2.0,93,0.00,,---,0.00,VWS V14.00,2013-02-08 12:35:00,
2013-02-08 07:40:00,43.3,41.4,29.95,North,351,0.0,2.0,93,0.00,,---,0.00,VWS V14.00,2013-02-08 12:40:00,
2013-02-08 07:46:00,43.3,41.7,29.95,North,351,1.0,4.0,94,0.00,,---,0.00,VWS V14.00,2013-02-08 12:46:00,
2013-02-08 07:50:00,43.4,41.5,29.96,North,351,0.0,4.0,93,0.00,,---,0.00,VWS V14.00,2013-02-08 12:50:00,
2013-02-08 07:55:00,43.4,41.5,29.96,North,351,1.0,4.0,93,0.00,,---,0.00,VWS V14.00,2013-02-08 12:55:00,
2013-02-08 08:01:00,43.5,41.6,29.96,NNW,344,1.0,5.0,93,0.00,,---,0.00,VWS V14.00,2013-02-08 13:01:00,
2013-02-08 08:06:00,43.6,41.7,29.97,NNW,327,0.0,5.0,93,0.00,,---,0.00,VWS V14.00,2013-02-08 13:06:00,
2013-02-08 08:10:00,43.7,41.8,29.98,NNW,327,0.0,5.0,93,0.00,,---,0.00,VWS V14.00,2013-02-08 13:10:00,
2013-02-08 08:15:00,43.8,41.9,29.98,NNW,327,0.0,5.0,93,0.00,,---,0.00,VWS V14.00,2013-02-08 13:15:00,
2013-02-08 08:20:00,43.8,41.6,29.98,NNW,329,4.0,6.0,92,0.00,,---,0.00,VWS V14.00,2013-02-08 13:20:00,
2013-02-08 08:25:00,44.0,41.8,29.98,NNW,340,5.0,6.0,92,0.00,,---,0.00,VWS V14.00,2013-02-08 13:25:00,
2013-02-08 08:30:00,44.1,41.9,29.98,North,350,0.0,2.0,92,0.00,,---,0.00,VWS V14.00,2013-02-08 13:30:00,
2013-02-08 08:35:00,44.2,42.0,29.98,North,350,0.0,2.0,92,0.00,,---,0.00,VWS V14.00,2013-02-08 13:35:00,
2013-02-08 08:40:00,44.3,42.1,29.98,North,350,0.0,5.0,92,0.00,,---,0.00,VWS V14.00,2013-02-08 13:40:00,
2013-02-08 08:45:00,44.4,42.2,29.98,North,355,2.0,6.0,92,0.00,,---,0.00,VWS V14.00,2013-02-08 13:45:00,
2013-02-08 08:50:00,44.4,41.9,29.98,North,355,4.0,6.0,91,0.00,,---,0.00,VWS V14.00,2013-02-08 13:50:00,
2013-02-08 08:55:00,44.5,42.0,29.98,North,355,1.0,6.0,91,0.00,,---,0.00,VWS V14.00,2013-02-08 13:55:00,
2013-02-08 09:00:00,44.6,42.1,29.99,NW,316,0.0,5.0,91,0.00,,---,0.00,VWS V14.00,2013-02-08 14:00:00,
2013-02-08 09:05:00,44.6,42.1,29.99,NW,316,0.0,5.0,91,0.00,,---,0.00,VWS V14.00,2013-02-08 14:05:00,
2013-02-08 09:10:00,44.8,42.3,29.99,NW,319,0.0,5.0,91,0.00,,---,0.00,VWS V14.00,2013-02-08 14:10:00,
2013-02-08 09:15:00,44.8,42.3,29.99,NW,313,1.0,5.0,91,0.00,,---,0.00,VWS V14.00,2013-02-08 14:15:00,
2013-02-08 09:20:00,44.9,42.4,29.99,NNW,333,5.0,6.0,91,0.00,,---,0.00,VWS V14.00,2013-02-08 14:20:00,
2013-02-08 09:25:00,44.9,42.2,29.99,NNE,28,1.0,9.0,90,0.00,,---,0.00,VWS V14.00,2013-02-08 14:25:00,
2013-02-08 09:31:00,44.9,42.2,29.99,North,9,0.0,5.0,90,0.00,,---,0.00,VWS V14.00,2013-02-08 14:31:00,
2013-02-08 09:36:00,45.0,42.2,29.99,North,11,1.0,5.0,90,0.00,,---,0.00,VWS V14.00,2013-02-08 14:36:00,
2013-02-08 09:41:00,45.1,42.3,29.98,North,5,1.0,5.0,90,0.00,,---,0.00,VWS V14.00,2013-02-08 14:41:00,
2013-02-08 09:46:00,45.2,42.5,29.99,North,355,1.0,5.0,90,0.00,,---,0.00,VWS V14.00,2013-02-08 14:46:00,
2013-02-08 09:51:00,45.3,42.3,29.98,NNE,15,1.0,6.0,89,0.00,,---,0.00,VWS V14.00,2013-02-08 14:51:00,
2013-02-08 09:56:00,45.4,42.6,29.98,NNE,15,2.0,6.0,90,0.00,,---,0.00,VWS V14.00,2013-02-08 14:56:00,
2013-02-08 10:01:00,45.8,43.0,29.98,NNE,26,0.0,4.0,90,0.00,,---,0.00,VWS V14.00,2013-02-08 15:01:00,
2013-02-08 10:06:00,46.1,43.0,29.98,NNE,21,0.0,4.0,89,0.00,,---,0.00,VWS V14.00,2013-02-08 15:06:00,
2013-02-08 10:11:00,46.2,42.8,29.99,North,10,2.0,4.0,88,0.00,,---,0.00,VWS V14.00,2013-02-08 15:11:00,
2013-02-08 10:16:00,46.5,43.1,29.99,WNW,302,0.0,5.0,88,0.00,,---,0.00,VWS V14.00,2013-02-08 15:16:00,
2013-02-08 10:21:00,46.7,43.3,29.98,NW,319,0.0,5.0,88,0.00,,---,0.00,VWS V14.00,2013-02-08 15:21:00,
2013-02-08 10:26:00,46.8,43.4,29.99,NNW,327,0.0,5.0,88,0.00,,---,0.00,VWS V14.00,2013-02-08 15:26:00,
2013-02-08 10:31:00,47.0,43.6,29.99,NW,319,0.0,2.0,88,0.00,,---,0.00,VWS V14.00,2013-02-08 15:31:00,
2013-02-08 10:36:00,47.1,43.4,29.99,NW,321,1.0,2.0,87,0.00,,---,0.00,VWS V14.00,2013-02-08 15:36:00,
2013-02-08 10:41:00,47.1,43.4,29.99,NW,323,1.0,6.0,87,0.00,,---,0.00,VWS V14.00,2013-02-08 15:41:00,
2013-02-08 10:46:00,47.2,43.5,29.99,NW,321,2.0,6.0,87,0.00,,---,0.00,VWS V14.00,2013-02-08 15:46:00,
2013-02-08 10:51:00,47.4,43.4,29.99,NW,315,2.0,6.0,86,0.00,,---,0.00,VWS V14.00,2013-02-08 15:51:00,
2013-02-08 10:56:00,47.6,43.9,29.99,NW,304,0.0,6.0,87,0.00,,---,0.00,VWS V14.00,2013-02-08 15:56:00,
2013-02-08 11:01:00,47.8,43.8,29.99,NW,304,0.0,1.0,86,0.00,,---,0.00,VWS V14.00,2013-02-08 16:01:00,
2013-02-08 11:06:00,48.1,44.1,29.99,NW,304,1.0,2.0,86,0.00,,---,0.00,VWS V14.00,2013-02-08 16:06:00,
2013-02-08 11:11:00,48.3,44.3,29.99,NW,305,0.0,4.0,86,0.00,,---,0.00,VWS V14.00,2013-02-08 16:11:00,
2013-02-08 11:16:00,48.6,44.6,29.99,NW,309,0.0,4.0,86,0.00,,---,0.00,VWS V14.00,2013-02-08 16:16:00,
2013-02-08 11:21:00,48.9,44.6,29.99,NW,319,0.0,5.0,85,0.00,,---,0.00,VWS V14.00,2013-02-08 16:21:00,
2013-02-08 11:25:00,49.1,44.5,29.98,North,360,0.0,6.0,84,0.00,,---,0.00,VWS V14.00,2013-02-08 16:25:00,
2013-02-08 11:30:00,49.4,45.1,29.98,North,5,2.0,5.0,85,0.00,,---,0.00,VWS V14.00,2013-02-08 16:30:00,
2013-02-08 11:36:00,49.6,44.7,29.98,North,355,1.0,5.0,83,0.00,,---,0.00,VWS V14.00,2013-02-08 16:36:00,
2013-02-08 11:41:00,49.9,45.3,29.98,NW,317,0.0,5.0,84,0.00,,---,0.00,VWS V14.00,2013-02-08 16:41:00,
2013-02-08 11:46:00,50.5,45.5,29.98,NNW,340,0.0,6.0,83,0.00,,---,0.00,VWS V14.00,2013-02-08 16:46:00,
2013-02-08 11:51:00,51.0,45.7,29.98,NNW,345,1.0,6.0,82,0.00,,---,0.00,VWS V14.00,2013-02-08 16:51:00,
2013-02-08 11:56:00,51.1,45.5,29.97,North,350,0.0,6.0,81,0.00,,---,0.00,VWS V14.00,2013-02-08 16:56:00,
2013-02-08 12:01:00,51.4,46.1,29.97,NNW,335,4.0,4.0,82,0.00,,---,0.00,VWS V14.00,2013-02-08 17:01:00,
2013-02-08 12:06:00,51.4,45.1,29.97,North,355,2.0,8.0,79,0.00,,---,0.00,VWS V14.00,2013-02-08 17:06:00,
2013-02-08 12:11:00,51.5,45.9,29.97,West,267,3.0,8.0,81,0.00,,---,0.00,VWS V14.00,2013-02-08 17:11:00,
2013-02-08 12:16:00,52.3,46.0,29.97,NNW,342,4.0,8.0,79,0.00,,---,0.00,VWS V14.00,2013-02-08 17:16:00,
2013-02-08 12:21:00,52.9,46.6,29.97,North,350,2.0,8.0,79,0.00,,---,0.00,VWS V14.00,2013-02-08 17:21:00,
2013-02-08 12:26:00,53.3,47.0,29.97,NNW,340,1.0,8.0,79,0.00,,---,0.00,VWS V14.00,2013-02-08 17:26:00,
2013-02-08 12:31:00,54.0,47.0,29.97,WSW,240,7.0,9.0,77,0.00,,---,0.00,VWS V14.00,2013-02-08 17:31:00,
2013-02-08 12:36:00,54.8,48.4,29.97,West,272,0.0,9.0,79,0.00,,---,0.00,VWS V14.00,2013-02-08 17:36:00,
2013-02-08 12:41:00,55.7,47.5,29.97,NNW,348,0.0,9.0,74,0.00,,---,0.00,VWS V14.00,2013-02-08 17:41:00,
2013-02-08 12:46:00,56.1,47.9,29.97,NW,324,1.0,9.0,74,0.00,,---,0.00,VWS V14.00,2013-02-08 17:46:00,
2013-02-08 12:51:00,56.4,48.2,29.97,WSW,244,1.0,9.0,74,0.00,,---,0.00,VWS V14.00,2013-02-08 17:51:00,
2013-02-08 12:56:00,57.1,48.2,29.96,NW,314,0.0,9.0,72,0.00,,---,0.00,VWS V14.00,2013-02-08 17:56:00,
2013-02-08 13:01:00,57.4,48.1,29.96,North,360,2.0,6.0,71,0.00,,---,0.00,VWS V14.00,2013-02-08 18:01:00,
2013-02-08 13:06:00,57.3,48.4,29.96,NW,312,1.0,6.0,72,0.00,,---,0.00,VWS V14.00,2013-02-08 18:06:00,
2013-02-08 13:11:00,57.7,48.8,29.96,WSW,242,5.0,6.0,72,0.00,,---,0.00,VWS V14.00,2013-02-08 18:11:00,
2013-02-08 13:16:00,58.3,48.2,29.95,NNW,333,2.0,8.0,69,0.00,,---,0.00,VWS V14.00,2013-02-08 18:16:00,
2013-02-08 13:21:00,58.7,49.0,29.95,WSW,248,5.0,8.0,70,0.00,,---,0.00,VWS V14.00,2013-02-08 18:21:00,
2013-02-08 13:26:00,59.4,50.0,29.95,North,5,0.0,8.0,71,0.00,,---,0.00,VWS V14.00,2013-02-08 18:26:00,
2013-02-08 13:31:00,59.8,48.8,29.95,NW,325,0.0,6.0,67,0.00,,---,0.00,VWS V14.00,2013-02-08 18:31:00,
2013-02-08 13:36:00,60.0,49.4,29.94,NW,322,5.0,7.0,68,0.00,,---,0.00,VWS V14.00,2013-02-08 18:36:00,
2013-02-08 13:41:00,60.4,49.8,29.94,NW,319,0.0,7.0,68,0.00,,---,0.00,VWS V14.00,2013-02-08 18:41:00,
2013-02-08 13:46:00,60.8,49.8,29.94,WSW,250,6.0,8.0,67,0.00,,---,0.00,VWS V14.00,2013-02-08 18:46:00,
2013-02-08 13:51:00,61.2,50.6,29.93,NNW,338,1.0,8.0,68,0.00,,---,0.00,VWS V14.00,2013-02-08 18:51:00,
2013-02-08 13:56:00,61.9,49.6,29.93,West,261,0.0,8.0,64,0.00,,---,0.00,VWS V14.00,2013-02-08 18:56:00,
2013-02-08 14:01:00,62.0,50.1,29.93,WSW,244,3.0,8.0,65,0.00,,---,0.00,VWS V14.00,2013-02-08 19:01:00,
2013-02-08 14:06:00,62.2,49.9,29.93,NNW,331,2.0,9.0,64,0.00,,---,0.00,VWS V14.00,2013-02-08 19:06:00,
2013-02-08 14:11:00,62.5,50.2,29.93,North,350,5.0,9.0,64,0.00,,---,0.00,VWS V14.00,2013-02-08 19:11:00,
2013-02-08 14:16:00,62.3,50.0,29.93,North,9,2.0,9.0,64,0.00,,---,0.00,VWS V14.00,2013-02-08 19:16:00,
2013-02-08 14:21:00,62.0,50.1,29.93,NW,321,5.0,9.0,65,0.00,,---,0.00,VWS V14.00,2013-02-08 19:21:00,
2013-02-08 14:26:00,61.7,49.8,29.93,NW,304,0.0,9.0,65,0.00,,---,0.00,VWS V14.00,2013-02-08 19:26:00,
2013-02-08 14:31:00,61.6,50.1,29.93,NW,304,1.0,6.0,66,0.00,,---,0.00,VWS V14.00,2013-02-08 19:31:00,
2013-02-08 14:36:00,61.4,50.0,29.93,NNW,347,1.0,9.0,66,0.00,,---,0.00,VWS V14.00,2013-02-08 19:36:00,
2013-02-08 14:41:00,61.1,49.7,29.93,NNE,26,7.0,9.0,66,0.00,,---,0.00,VWS V14.00,2013-02-08 19:41:00,
2013-02-08 14:46:00,61.1,49.7,29.93,WNW,295,7.0,14.0,66,0.00,,---,0.00,VWS V14.00,2013-02-08 19:46:00,
2013-02-08 14:51:00,60.9,49.5,29.93,NW,304,5.0,14.0,66,0.00,,---,0.00,VWS V14.00,2013-02-08 19:51:00,
2013-02-08 14:56:00,61.0,49.6,29.93,WSW,248,3.0,14.0,66,0.00,,---,0.00,VWS V14.00,2013-02-08 19:56:00,
2013-02-08 15:01:00,61.0,49.6,29.94,North,355,4.0,13.0,66,0.00,,---,0.00,VWS V14.00,2013-02-08 20:01:00,
2013-02-08 15:06:00,60.7,49.3,29.93,NW,317,4.0,13.0,66,0.00,,---,0.00,VWS V14.00,2013-02-08 20:06:00,
2013-02-08 15:11:00,60.4,49.0,29.93,North,5,5.0,15.0,66,0.00,,---,0.00,VWS V14.00,2013-02-08 20:11:00,
2013-02-08 15:16:00,60.2,49.2,29.93,WSW,250,4.0,15.0,67,0.00,,---,0.00,VWS V14.00,2013-02-08 20:16:00,
2013-02-08 15:21:00,60.1,49.1,29.93,SW,236,6.0,15.0,67,0.00,,---,0.00,VWS V14.00,2013-02-08 20:21:00,
2013-02-08 15:26:00,60.4,49.0,29.93,West,267,8.0,15.0,66,0.00,,---,0.00,VWS V14.00,2013-02-08 20:26:00,
2013-02-08 15:31:00,60.3,48.5,29.93,West,272,2.0,14.0,65,0.00,,---,0.00,VWS V14.00,2013-02-08 20:31:00,
2013-02-08 15:36:00,60.1,49.1,29.93,NNW,331,6.0,14.0,67,0.00,,---,0.00,VWS V14.00,2013-02-08 20:36:00,
2013-02-08 15:41:00,59.9,48.9,29.93,North,350,5.0,14.0,67,0.00,,---,0.00,VWS V14.00,2013-02-08 20:41:00,
2013-02-08 15:46:00,59.9,49.3,29.93,NW,319,2.0,14.0,68,0.00,,---,0.00,VWS V14.00,2013-02-08 20:46:00,
2013-02-08 15:51:00,59.8,48.8,29.93,West,261,2.0,14.0,67,0.00,,---,0.00,VWS V14.00,2013-02-08 20:51:00,
2013-02-08 15:56:00,59.8,49.2,29.93,WSW,246,2.0,14.0,68,0.00,,---,0.00,VWS V14.00,2013-02-08 20:56:00,
2013-02-08 16:01:00,60.0,49.4,29.93,NNW,338,4.0,7.0,68,0.00,,---,0.00,VWS V14.00,2013-02-08 21:01:00,
2013-02-08 16:06:00,60.0,49.4,29.94,NW,311,2.0,8.0,68,0.00,,---,0.00,VWS V14.00,2013-02-08 21:06:00,
2013-02-08 16:11:00,60.0,49.4,29.94,WSW,242,7.0,10.0,68,0.00,,---,0.00,VWS V14.00,2013-02-08 21:11:00,
2013-02-08 16:16:00,59.8,49.6,29.94,WSW,242,4.0,10.0,69,0.00,,---,0.00,VWS V14.00,2013-02-08 21:16:00,
2013-02-08 16:21:00,59.6,49.4,29.94,SW,223,3.0,12.0,69,0.00,,---,0.00,VWS V14.00,2013-02-08 21:21:00,
2013-02-08 16:26:00,59.4,49.2,29.94,WNW,286,6.0,13.0,69,0.00,,---,0.00,VWS V14.00,2013-02-08 21:26:00,
2013-02-08 16:31:00,59.3,49.1,29.94,North,360,2.0,11.0,69,0.00,,---,0.00,VWS V14.00,2013-02-08 21:31:00,
2013-02-08 16:36:00,59.2,49.4,29.94,NW,316,6.0,11.0,70,0.00,,---,0.00,VWS V14.00,2013-02-08 21:36:00,
2013-02-08 16:41:00,59.0,49.2,29.94,NW,306,2.0,11.0,70,0.00,,---,0.00,VWS V14.00,2013-02-08 21:41:00,
2013-02-08 16:46:00,58.9,49.5,29.94,NNW,343,5.0,11.0,71,0.00,,---,0.00,VWS V14.00,2013-02-08 21:46:00,
2013-02-08 16:51:00,58.7,49.3,29.94,NW,309,1.0,11.0,71,0.00,,---,0.00,VWS V14.00,2013-02-08 21:51:00,
2013-02-08 16:56:00,58.8,49.8,29.94,WNW,301,1.0,11.0,72,0.00,,---,0.00,VWS V14.00,2013-02-08 21:56:00,
2013-02-08 17:01:00,58.9,49.5,29.94,NW,316,10.0,10.0,71,0.00,,---,0.00,VWS V14.00,2013-02-08 22:01:00,
2013-02-08 17:06:00,58.9,49.5,29.94,NW,306,1.0,10.0,71,0.00,,---,0.00,VWS V14.00,2013-02-08 22:06:00,
2013-02-08 17:11:00,58.6,49.2,29.94,NW,308,1.0,13.0,71,0.00,,---,0.00,VWS V14.00,2013-02-08 22:11:00,
2013-02-08 17:16:00,58.5,49.5,29.94,NNW,329,8.0,13.0,72,0.00,,---,0.00,VWS V14.00,2013-02-08 22:16:00,
2013-02-08 17:21:00,58.4,49.4,29.95,NW,317,1.0,13.0,72,0.00,,---,0.00,VWS V14.00,2013-02-08 22:21:00,
2013-02-08 17:26:00,58.3,49.3,29.95,WNW,283,1.0,13.0,72,0.00,,---,0.00,VWS V14.00,2013-02-08 22:26:00,
2013-02-08 17:31:00,58.2,49.2,29.95,NW,317,1.0,10.0,72,0.00,,---,0.00,VWS V14.00,2013-02-08 22:31:00,
2013-02-08 17:36:00,58.1,49.5,29.95,WNW,300,1.0,10.0,73,0.00,,---,0.00,VWS V14.00,2013-02-08 22:36:00,
2013-02-08 17:41:00,58.0,49.4,29.96,NW,317,0.0,10.0,73,0.00,,---,0.00,VWS V14.00,2013-02-08 22:41:00,
2013-02-08 17:46:00,58.0,49.8,29.96,NW,319,1.0,10.0,74,0.00,,---,0.00,VWS V14.00,2013-02-08 22:46:00,
2013-02-08 17:51:00,57.9,49.7,29.96,NNW,339,4.0,10.0,74,0.00,,---,0.00,VWS V14.00,2013-02-08 22:51:00,
2013-02-08 17:56:00,57.8,49.6,29.97,NNW,335,4.0,10.0,74,0.00,,---,0.00,VWS V14.00,2013-02-08 22:56:00,
2013-02-08 18:01:00,57.7,49.8,29.97,NW,315,1.0,5.0,75,0.00,,---,0.00,VWS V14.00,2013-02-08 23:01:00,
2013-02-08 18:06:00,57.6,49.8,29.97,NW,325,0.0,8.0,75,0.00,,---,0.00,VWS V14.00,2013-02-08 23:06:00,
2013-02-08 18:11:00,57.5,49.7,29.97,NW,322,1.0,8.0,75,0.00,,---,0.00,VWS V14.00,2013-02-08 23:11:00,
2013-02-08 18:16:00,57.5,49.7,29.97,NW,318,5.0,8.0,75,0.00,,---,0.00,VWS V14.00,2013-02-08 23:16:00,
2013-02-08 18:21:00,57.4,49.5,29.97,WNW,289,1.0,8.0,75,0.00,,---,0.00,VWS V14.00,2013-02-08 23:21:00,
2013-02-08 18:26:00,57.2,49.7,29.97,NW,314,1.0,8.0,76,0.00,,---,0.00,VWS V14.00,2013-02-08 23:26:00,
2013-02-08 18:31:00,56.9,49.4,29.97,NW,312,2.0,2.0,76,0.00,,---,0.00,VWS V14.00,2013-02-08 23:31:00,
2013-02-08 18:36:00,56.7,49.6,29.97,NW,309,2.0,4.0,77,0.00,,---,0.00,VWS V14.00,2013-02-08 23:36:00,
2013-02-08 18:41:00,56.4,49.3,29.97,NW,311,1.0,5.0,77,0.00,,---,0.00,VWS V14.00,2013-02-08 23:41:00,
2013-02-08 18:46:00,56.2,49.4,29.97,NW,312,0.0,6.0,78,0.00,,---,0.00,VWS V14.00,2013-02-08 23:46:00,
2013-02-08 18:51:00,55.9,49.2,29.98,NW,315,1.0,6.0,78,0.00,,---,0.00,VWS V14.00,2013-02-08 23:51:00,
2013-02-08 18:56:00,55.7,49.3,29.98,NW,313,2.0,6.0,79,0.00,,---,0.00,VWS V14.00,2013-02-08 23:56:00,
2013-02-08 19:01:00,55.5,49.1,29.98,NW,315,2.0,9.0,79,0.00,,---,0.00,VWS V14.00,2013-02-09 00:01:00,
2013-02-08 19:06:00,55.3,49.2,29.99,NW,317,6.0,9.0,80,0.00,,---,0.00,VWS V14.00,2013-02-09 00:06:00,
2013-02-08 19:11:00,55.3,49.2,29.99,NW,322,2.0,9.0,80,0.00,,---,0.00,VWS V14.00,2013-02-09 00:11:00,
2013-02-08 19:16:00,55.1,49.0,29.99,NNW,336,0.0,9.0,80,0.00,,---,0.00,VWS V14.00,2013-02-09 00:16:00,
2013-02-08 19:21:00,54.9,48.9,29.99,NW,320,0.0,9.0,80,0.00,,---,0.00,VWS V14.00,2013-02-09 00:21:00,
2013-02-08 19:26:00,54.7,49.0,29.99,WNW,292,0.0,9.0,81,0.00,,---,0.00,VWS V14.00,2013-02-09 00:26:00,
2013-02-08 19:31:00,54.6,48.9,29.99,NW,312,0.0,5.0,81,0.00,,---,0.00,VWS V14.00,2013-02-09 00:31:00,
2013-02-08 19:36:00,54.4,48.7,30.00,NW,313,2.0,5.0,81,0.00,,---,0.00,VWS V14.00,2013-02-09 00:36:00,
2013-02-08 19:41:00,54.2,48.5,29.99,NW,309,0.0,6.0,81,0.00,,---,0.00,VWS V14.00,2013-02-09 00:41:00,
2013-02-08 19:46:00,54.1,48.7,30.00,NW,317,1.0,7.0,82,0.00,,---,0.00,VWS V14.00,2013-02-09 00:46:00,
2013-02-08 19:51:00,53.9,48.5,30.00,NW,325,0.0,7.0,82,0.00,,---,0.00,VWS V14.00,2013-02-09 00:51:00,
2013-02-08 19:56:00,53.8,48.4,30.00,NW,311,1.0,7.0,82,0.00,,---,0.00,VWS V14.00,2013-02-09 00:56:00,
2013-02-08 20:01:00,53.6,48.2,30.01,NW,310,0.0,4.0,82,0.00,,---,0.00,VWS V14.00,2013-02-09 01:01:00,
2013-02-08 20:06:00,53.3,48.3,30.01,NW,311,2.0,6.0,83,0.00,,---,0.00,VWS V14.00,2013-02-09 01:06:00,
2013-02-08 20:11:00,53.2,48.2,30.01,NW,311,4.0,6.0,83,0.00,,---,0.00,VWS V14.00,2013-02-09 01:11:00,
2013-02-08 20:16:00,52.9,47.9,30.01,NW,311,0.0,6.0,83,0.00,,---,0.00,VWS V14.00,2013-02-09 01:16:00,
2013-02-08 20:21:00,52.7,47.7,30.01,NW,310,2.0,6.0,83,0.00,,---,0.00,VWS V14.00,2013-02-09 01:21:00,
2013-02-08 20:26:00,52.6,47.6,30.01,NW,315,0.0,6.0,83,0.00,,---,0.00,VWS V14.00,2013-02-09 01:26:00,
2013-02-08 20:31:00,52.5,47.8,30.01,NW,305,0.0,6.0,84,0.00,,---,0.00,VWS V14.00,2013-02-09 01:31:00,
2013-02-08 20:36:00,52.3,47.6,30.01,NW,304,0.0,6.0,84,0.00,,---,0.00,VWS V14.00,2013-02-09 01:36:00,
2013-02-08 20:41:00,52.2,47.5,30.02,NW,323,0.0,6.0,84,0.00,,---,0.00,VWS V14.00,2013-02-09 01:41:00,
2013-02-08 20:46:00,52.1,47.4,30.02,WNW,301,0.0,6.0,84,0.00,,---,0.00,VWS V14.00,2013-02-09 01:46:00,
2013-02-08 20:51:00,51.9,47.2,30.02,WNW,296,1.0,7.0,84,0.00,,---,0.00,VWS V14.00,2013-02-09 01:51:00,
2013-02-08 20:56:00,51.8,47.1,30.02,WNW,296,2.0,7.0,84,0.00,,---,0.00,VWS V14.00,2013-02-09 01:56:00,
2013-02-08 21:01:00,51.6,46.9,30.03,NW,309,0.0,5.0,84,0.00,,---,0.00,VWS V14.00,2013-02-09 02:01:00,
2013-02-08 21:06:00,51.5,46.8,30.03,NW,309,0.0,5.0,84,0.00,,---,0.00,VWS V14.00,2013-02-09 02:06:00,
2013-02-08 21:11:00,51.3,47.0,30.03,NW,309,1.0,5.0,85,0.00,,---,0.00,VWS V14.00,2013-02-09 02:11:00,
2013-02-08 21:16:00,51.1,46.8,30.03,WNW,300,4.0,6.0,85,0.00,,---,0.00,VWS V14.00,2013-02-09 02:16:00,
2013-02-08 21:21:00,51.0,46.7,30.03,NW,305,1.0,6.0,85,0.00,,---,0.00,VWS V14.00,2013-02-09 02:21:00,
2013-02-08 21:26:00,50.9,46.6,30.03,NW,313,0.0,6.0,85,0.00,,---,0.00,VWS V14.00,2013-02-09 02:26:00,
2013-02-08 21:31:00,50.7,46.4,30.04,NW,313,1.0,4.0,85,0.00,,---,0.00,VWS V14.00,2013-02-09 02:31:00,
2013-02-08 21:36:00,50.6,46.3,30.04,NW,318,1.0,8.0,85,0.00,,---,0.00,VWS V14.00,2013-02-09 02:36:00,
2013-02-08 21:41:00,50.5,46.2,30.04,NW,317,0.0,8.0,85,0.00,,---,0.00,VWS V14.00,2013-02-09 02:41:00,
2013-02-08 21:46:00,50.3,46.0,30.04,NW,317,0.0,8.0,85,0.00,,---,0.00,VWS V14.00,2013-02-09 02:46:00,
2013-02-08 21:51:00,50.2,45.9,30.04,NW,317,0.0,8.0,85,0.00,,---,0.00,VWS V14.00,2013-02-09 02:51:00,
2013-02-08 21:56:00,50.0,45.7,30.04,NW,317,1.0,8.0,85,0.00,,---,0.00,VWS V14.00,2013-02-09 02:56:00,
2013-02-08 22:01:00,49.8,45.5,30.04,NW,314,0.0,4.0,85,0.00,,---,0.00,VWS V14.00,2013-02-09 03:01:00,
2013-02-08 22:06:00,49.6,45.3,30.05,NW,314,0.0,4.0,85,0.00,,---,0.00,VWS V14.00,2013-02-09 03:06:00,
2013-02-08 22:11:00,49.4,45.4,30.05,NW,314,0.0,4.0,86,0.00,,---,0.00,VWS V14.00,2013-02-09 03:11:00,
2013-02-08 22:16:00,49.2,45.2,30.05,NW,314,0.0,4.0,86,0.00,,---,0.00,VWS V14.00,2013-02-09 03:16:00,
2013-02-08 22:21:00,48.9,44.9,30.05,NW,314,0.0,4.0,86,0.00,,---,0.00,VWS V14.00,2013-02-09 03:21:00,
2013-02-08 22:26:00,48.7,44.7,30.06,NW,314,1.0,4.0,86,0.00,,---,0.00,VWS V14.00,2013-02-09 03:26:00,
2013-02-08 22:31:00,48.4,44.4,30.06,NW,314,0.0,1.0,86,0.00,,---,0.00,VWS V14.00,2013-02-09 03:31:00,
2013-02-08 22:36:00,48.2,44.2,30.06,NW,314,1.0,4.0,86,0.00,,---,0.00,VWS V14.00,2013-02-09 03:36:00,
2013-02-08 22:41:00,48.1,43.8,30.06,NW,314,2.0,4.0,85,0.00,,---,0.00,VWS V14.00,2013-02-09 03:41:00,
2013-02-08 22:46:00,48.0,43.7,30.07,NW,313,0.0,4.0,85,0.00,,---,0.00,VWS V14.00,2013-02-09 03:46:00,
2013-02-08 22:51:00,47.8,43.5,30.07,NW,313,0.0,4.0,85,0.00,,---,0.00,VWS V14.00,2013-02-09 03:51:00,
2013-02-08 22:56:00,47.6,43.3,30.06,NW,313,0.0,4.0,85,0.00,,---,0.00,VWS V14.00,2013-02-09 03:56:00,
2013-02-08 23:01:00,47.4,43.1,30.07,NW,313,0.0,0.0,85,0.00,,---,0.00,VWS V14.00,2013-02-09 04:01:00,
2013-02-08 23:06:00,47.2,42.9,30.07,NW,313,0.0,1.0,85,0.00,,---,0.00,VWS V14.00,2013-02-09 04:06:00,
2013-02-08 23:11:00,46.9,42.6,30.08,NW,313,0.0,1.0,85,0.00,,---,0.00,VWS V14.00,2013-02-09 04:11:00,
2013-02-08 23:16:00,46.7,42.7,30.08,NW,313,0.0,1.0,86,0.00,,---,0.00,VWS V14.00,2013-02-09 04:16:00,
2013-02-08 23:21:00,46.5,42.8,30.09,NW,313,0.0,1.0,87,0.00,,---,0.00,VWS V14.00,2013-02-09 04:21:00,
2013-02-08 23:26:00,46.3,42.7,30.10,NW,313,0.0,2.0,87,0.00,,---,0.00,VWS V14.00,2013-02-09 04:26:00,
2013-02-08 23:31:00,46.1,42.5,30.10,NW,313,0.0,2.0,87,0.00,,---,0.00,VWS V14.00,2013-02-09 04:31:00,
2013-02-08 23:36:00,45.9,42.3,30.10,NW,313,0.0,2.0,87,0.00,,---,0.00,VWS V14.00,2013-02-09 04:36:00,
2013-02-08 23:41:00,45.8,42.2,30.10,NW,313,0.0,2.0,87,0.00,,---,0.00,VWS V14.00,2013-02-09 04:41:00,
2013-02-08 23:46:00,45.6,42.0,30.10,NW,313,0.0,2.0,87,0.00,,---,0.00,VWS V14.00,2013-02-09 04:46:00,
2013-02-08 23:51:00,45.4,41.8,30.10,NW,313,0.0,4.0,87,0.00,,---,0.00,VWS V14.00,2013-02-09 04:51:00,
2013-02-08 23:56:00,45.3,41.4,30.10,NW,313,0.0,4.0,86,0.00,,---,0.00,VWS V14.00,2013-02-09 04:56:00,